createdAt,value
2018-08-30T00:00:33.269Z,9.25
2018-08-30T00:02:09.501Z,8.00
2018-08-30T00:03:46.830Z,8.75
2018-08-30T00:05:22.441Z,8.75
2018-08-30T00:06:57.818Z,9.25
2018-08-30T00:08:33.246Z,8.75
2018-08-30T00:10:09.395Z,10.00
2018-08-30T00:11:44.914Z,10.00
2018-08-30T00:13:20.232Z,12.50
2018-08-30T00:14:57.468Z,13.00
2018-08-30T00:16:33.429Z,12.75
2018-08-30T00:18:08.649Z,12.75
2018-08-30T00:19:43.905Z,12.75
2018-08-30T00:21:19.225Z,12.75
2018-08-30T00:22:54.882Z,13.75
2018-08-30T00:24:30.154Z,12.50
2018-08-30T00:26:06.479Z,14.00
2018-08-30T00:27:43.025Z,15.00
2018-08-30T00:29:19.541Z,16.00
2018-08-30T00:30:56.226Z,16.25
2018-08-30T00:32:32.509Z,17.25
2018-08-30T00:34:08.518Z,16.75
2018-08-30T00:35:45.521Z,20.50
2018-08-30T00:37:20.826Z,20.75
2018-08-30T00:38:57.628Z,17.75
2018-08-30T00:40:34.858Z,20.50
2018-08-30T00:42:10.907Z,16.75
2018-08-30T00:43:47.495Z,19.75
2018-08-30T00:45:24.053Z,19.75
2018-08-30T00:46:59.335Z,19.00
2018-08-30T00:48:37.786Z,18.25
2018-08-30T00:50:14.446Z,20.75
2018-08-30T00:51:50.742Z,21.00
2018-08-30T00:53:26.048Z,18.50
2018-08-30T00:55:05.791Z,19.25
2018-08-30T00:56:41.316Z,20.50
2018-08-30T00:58:16.603Z,20.25
2018-08-30T00:59:52.729Z,19.25
2018-08-30T01:01:31.084Z,22.25
2018-08-30T01:03:07.803Z,17.75
2018-08-30T01:04:43.483Z,17.75
2018-08-30T01:06:18.669Z,18.50
2018-08-30T01:07:54.783Z,21.00
2018-08-30T01:09:30.514Z,21.25
2018-08-30T01:11:07.552Z,18.00
2018-08-30T01:12:48.083Z,20.50
2018-08-30T01:14:24.523Z,19.25
2018-08-30T01:16:00.143Z,21.75
2018-08-30T01:17:36.832Z,21.00
2018-08-30T01:19:12.122Z,20.25
2018-08-30T01:20:47.671Z,20.75
2018-08-30T01:22:23.037Z,19.75
2018-08-30T01:23:58.805Z,21.00
2018-08-30T01:25:35.545Z,19.50
2018-08-30T01:27:18.646Z,18.00
2018-08-30T01:28:56.443Z,19.50
2018-08-30T01:30:32.526Z,20.75
2018-08-30T01:32:09.645Z,20.25
2018-08-30T01:33:45.013Z,20.00
2018-08-30T01:35:20.317Z,21.50
2018-08-30T01:36:56.515Z,18.50
2018-08-30T01:38:39.930Z,19.75
2018-08-30T01:40:15.584Z,20.00
2018-08-30T01:41:53.215Z,19.25
2018-08-30T01:43:29.684Z,19.25
2018-08-30T01:45:07.313Z,20.75
2018-08-30T01:46:43.130Z,20.75
2018-08-30T01:48:18.748Z,20.75
2018-08-30T01:49:54.565Z,20.75
2018-08-30T01:51:29.905Z,20.75
2018-08-30T01:53:05.347Z,20.00
2018-08-30T01:54:43.212Z,20.75
2018-08-30T01:56:19.058Z,20.00
2018-08-30T01:57:54.413Z,19.25
2018-08-30T01:59:29.729Z,20.75
2018-08-30T02:01:05.242Z,21.00
2018-08-30T02:02:40.908Z,20.75
2018-08-30T02:04:16.348Z,21.25
2018-08-30T02:05:51.850Z,20.75
2018-08-30T02:07:27.233Z,22.75
2018-08-30T02:09:03.323Z,21.25
2018-08-30T02:10:38.696Z,20.75
2018-08-30T02:12:13.984Z,20.50
2018-08-30T02:13:49.467Z,21.50
2018-08-30T02:15:25.434Z,21.50
2018-08-30T02:17:00.717Z,21.25
2018-08-30T02:18:36.987Z,19.25
2018-08-30T02:20:12.287Z,20.50
2018-08-30T02:21:47.896Z,20.75
2018-08-30T02:23:23.183Z,20.75
2018-08-30T02:24:58.512Z,20.50
2018-08-30T02:26:33.846Z,20.25
2018-08-30T02:28:09.805Z,22.75
2018-08-30T02:29:45.167Z,20.75
2018-08-30T02:31:20.629Z,18.25
2018-08-30T02:32:55.931Z,20.75
2018-08-30T02:34:32.095Z,21.50
2018-08-30T02:36:07.719Z,22.75
2018-08-30T02:37:43.205Z,21.25
2018-08-30T02:39:18.721Z,23.50
2018-08-30T02:40:54.417Z,20.75
2018-08-30T02:42:29.680Z,20.50
2018-08-30T02:44:05.343Z,20.75
2018-08-30T02:45:44.728Z,20.00
2018-08-30T02:47:20.658Z,22.00
2018-08-30T02:48:56.225Z,20.75
2018-08-30T02:50:31.622Z,22.25
2018-08-30T02:52:07.028Z,23.75
2018-08-30T02:53:43.412Z,22.50
2018-08-30T02:55:18.765Z,22.00
2018-08-30T02:56:54.438Z,23.00
2018-08-30T02:58:31.518Z,20.50
2018-08-30T03:00:08.957Z,22.00
2018-08-30T03:01:44.564Z,21.00
2018-08-30T03:03:20.440Z,22.00
2018-08-30T03:04:56.192Z,22.00
2018-08-30T03:06:31.810Z,23.00
2018-08-30T03:08:07.831Z,23.00
2018-08-30T03:09:48.832Z,22.00
2018-08-30T03:11:24.854Z,23.75
2018-08-30T03:13:01.455Z,23.25
2018-08-30T03:14:38.761Z,22.75
2018-08-30T03:16:14.876Z,23.50
2018-08-30T03:17:50.148Z,22.00
2018-08-30T03:19:25.749Z,23.50
2018-08-30T03:21:01.217Z,22.00
2018-08-30T03:22:37.225Z,22.75
2018-08-30T03:24:12.485Z,23.75
2018-08-30T03:25:48.054Z,22.75
2018-08-30T03:27:23.319Z,24.25
2018-08-30T03:28:58.574Z,23.50
2018-08-30T03:30:35.704Z,24.75
2018-08-30T03:32:11.252Z,24.50
2018-08-30T03:33:46.504Z,24.25
2018-08-30T03:35:27.079Z,24.75
2018-08-30T03:37:02.433Z,25.00
2018-08-30T03:38:38.217Z,24.00
2018-08-30T03:40:13.352Z,23.00
2018-08-30T03:41:48.559Z,24.00
2018-08-30T03:43:23.715Z,24.00
2018-08-30T03:44:59.239Z,23.00
2018-08-30T03:46:34.762Z,23.25
2018-08-30T03:48:09.906Z,23.50
2018-08-30T03:49:45.085Z,22.75
2018-08-30T03:51:21.432Z,24.00
2018-08-30T03:52:56.758Z,23.50
2018-08-30T03:54:32.515Z,24.75
2018-08-30T03:56:07.829Z,24.00
2018-08-30T03:57:43.624Z,23.50
2018-08-30T03:59:19.176Z,23.00
2018-08-30T04:00:54.494Z,24.25
2018-08-30T04:02:29.732Z,24.25
2018-08-30T04:04:06.087Z,23.25
2018-08-30T04:05:41.350Z,24.75
2018-08-30T04:07:16.504Z,23.00
2018-08-30T04:08:51.662Z,23.00
2018-08-30T04:10:28.570Z,25.00
2018-08-30T04:12:04.877Z,23.00
2018-08-30T04:13:40.196Z,24.00
2018-08-30T04:15:17.791Z,23.00
2018-08-30T04:16:53.419Z,25.00
2018-08-30T04:18:28.660Z,23.75
2018-08-30T04:20:07.000Z,24.00
2018-08-30T04:21:42.612Z,25.00
2018-08-30T04:23:18.327Z,22.75
2018-08-30T04:24:57.762Z,24.00
2018-08-30T04:26:34.546Z,24.00
2018-08-30T04:28:10.161Z,24.50
2018-08-30T04:29:45.814Z,29.75
2018-08-30T04:31:21.972Z,26.50
2018-08-30T04:32:58.511Z,22.75
2018-08-30T04:34:37.178Z,22.75
2018-08-30T04:36:14.157Z,23.75
2018-08-30T04:37:49.793Z,23.25
2018-08-30T04:39:25.051Z,24.00
2018-08-30T04:41:00.979Z,24.00
2018-08-30T04:42:36.620Z,25.00
2018-08-30T04:44:12.362Z,26.50
2018-08-30T04:45:49.338Z,24.75
2018-08-30T04:47:24.633Z,23.75
2018-08-30T04:48:59.894Z,24.25
2018-08-30T04:50:35.187Z,24.25
2018-08-30T04:52:14.804Z,26.25
2018-08-30T04:53:50.432Z,28.00
2018-08-30T04:55:25.804Z,27.75
2018-08-30T04:57:01.972Z,26.25
2018-08-30T04:58:41.050Z,27.00
2018-08-30T05:00:21.247Z,26.50
2018-08-30T05:01:57.048Z,26.25
2018-08-30T05:03:33.235Z,25.75
2018-08-30T05:05:09.211Z,27.00
2018-08-30T05:06:46.059Z,27.00
2018-08-30T05:08:21.382Z,26.00
2018-08-30T05:09:57.548Z,25.25
2018-08-30T05:11:32.763Z,26.75
2018-08-30T05:13:09.533Z,27.00
2018-08-30T05:14:44.880Z,27.00
2018-08-30T05:16:20.898Z,27.00
2018-08-30T05:17:56.530Z,26.25
2018-08-30T05:19:35.807Z,27.75
2018-08-30T05:21:11.018Z,26.75
2018-08-30T05:22:46.339Z,27.25
2018-08-30T05:24:22.376Z,25.00
2018-08-30T05:25:57.976Z,27.25
2018-08-30T05:27:38.101Z,28.00
2018-08-30T05:29:13.484Z,25.75
2018-08-30T05:30:50.671Z,27.00
2018-08-30T05:32:26.422Z,25.75
2018-08-30T05:34:01.804Z,26.25
2018-08-30T05:35:37.051Z,26.00
2018-08-30T05:37:13.474Z,27.00
2018-08-30T05:38:49.132Z,24.75
2018-08-30T05:40:24.353Z,28.25
2018-08-30T05:41:59.542Z,25.00
2018-08-30T05:43:35.509Z,26.50
2018-08-30T05:45:11.407Z,27.00
2018-08-30T05:46:47.249Z,26.75
2018-08-30T05:48:22.457Z,26.75
2018-08-30T05:49:57.623Z,27.75
2018-08-30T05:51:35.596Z,24.75
2018-08-30T05:53:10.847Z,23.50
2018-08-30T05:54:49.669Z,24.75
2018-08-30T05:56:26.804Z,24.75
2018-08-30T05:58:04.116Z,25.75
2018-08-30T05:59:39.407Z,24.75
2018-08-30T06:01:15.275Z,26.75
2018-08-30T06:02:50.488Z,24.50
2018-08-30T06:04:27.675Z,24.50
2018-08-30T06:06:02.843Z,24.75
2018-08-30T06:07:38.054Z,23.75
2018-08-30T06:09:14.931Z,25.50
2018-08-30T06:10:51.747Z,25.00
2018-08-30T06:14:08.596Z,23.00
2018-08-30T06:15:44.967Z,23.25
2018-08-30T06:17:23.784Z,25.25
2018-08-30T06:18:59.521Z,25.50
2018-08-30T06:20:34.770Z,22.75
2018-08-30T06:22:10.487Z,24.25
2018-08-30T06:23:48.920Z,23.25
2018-08-30T06:25:24.801Z,23.50
2018-08-30T06:27:03.697Z,23.25
2018-08-30T06:28:40.163Z,23.75
2018-08-30T06:30:21.214Z,24.00
2018-08-30T06:33:32.688Z,21.00
2018-08-30T06:35:15.698Z,23.50
2018-08-30T06:36:51.356Z,20.25
2018-08-30T06:38:28.535Z,22.00
2018-08-30T06:40:06.532Z,20.50
2018-08-30T06:41:42.253Z,22.00
2018-08-30T06:43:18.068Z,22.00
2018-08-30T06:44:54.256Z,22.00
2018-08-30T06:46:35.296Z,21.50
2018-08-30T06:48:11.511Z,20.00
2018-08-30T06:49:53.300Z,21.50
2018-08-30T06:51:28.487Z,20.25
2018-08-30T06:53:07.077Z,21.00
2018-08-30T06:54:43.204Z,22.00
2018-08-30T06:56:19.021Z,22.50
2018-08-30T06:57:57.265Z,22.00
2018-08-30T06:59:32.993Z,20.00
2018-08-30T07:01:10.476Z,21.50
2018-08-30T07:02:45.796Z,21.00
2018-08-30T07:04:22.976Z,19.50
2018-08-30T07:05:59.690Z,20.00
2018-08-30T07:07:36.516Z,20.25
2018-08-30T07:09:13.818Z,19.75
2018-08-30T07:10:49.240Z,19.00
2018-08-30T07:12:24.410Z,17.50
2018-08-30T07:14:02.463Z,16.25
2018-08-30T07:15:39.464Z,17.00
2018-08-30T07:17:14.889Z,17.25
2018-08-30T07:18:50.243Z,19.75
2018-08-30T07:20:25.887Z,16.50
2018-08-30T07:22:01.146Z,17.00
2018-08-30T07:23:40.533Z,17.50
2018-08-30T07:25:20.809Z,18.00
2018-08-30T07:27:06.511Z,15.75
2018-08-30T07:28:48.765Z,14.00
2018-08-30T07:30:26.801Z,15.75
2018-08-30T07:32:10.851Z,16.25
2018-08-30T07:33:46.776Z,17.00
2018-08-30T07:35:24.251Z,15.25
2018-08-30T07:37:02.679Z,15.00
2018-08-30T07:38:39.323Z,16.00
2018-08-30T07:42:12.310Z,15.50
2018-08-30T07:43:57.309Z,15.50
2018-08-30T07:45:33.834Z,14.75
2018-08-30T07:47:08.972Z,15.00
2018-08-30T07:48:44.269Z,12.75
2018-08-30T07:50:21.159Z,11.75
2018-08-30T07:51:57.652Z,17.00
2018-08-30T07:53:34.982Z,13.75
2018-08-30T07:55:10.285Z,12.50
2018-08-30T07:56:46.013Z,13.25
2018-08-30T07:58:21.338Z,12.50
2018-08-30T07:59:56.564Z,11.50
2018-08-30T08:04:52.871Z,11.25
2018-08-30T08:06:29.121Z,11.25
2018-08-30T08:08:04.469Z,10.50
2018-08-30T08:09:41.133Z,11.50
2018-08-30T08:11:18.015Z,10.75
2018-08-30T08:12:54.839Z,8.25
2018-08-30T08:14:30.117Z,10.00
2018-08-30T08:16:05.620Z,11.00
2018-08-30T08:17:40.909Z,11.00
2018-08-30T08:19:18.235Z,10.50
2018-08-30T08:20:54.743Z,9.75
2018-08-30T08:22:32.786Z,10.75
2018-08-30T08:24:10.404Z,10.00
2018-08-30T08:25:50.370Z,9.00
2018-08-30T08:27:29.582Z,10.00
2018-08-30T08:29:14.820Z,8.50
2018-08-30T08:30:51.747Z,9.00
2018-08-30T08:32:27.168Z,8.50
2018-08-30T08:34:04.392Z,9.50
2018-08-30T08:35:44.413Z,8.00
2018-08-30T08:37:20.147Z,5.75
2018-08-30T08:38:59.987Z,8.50
2018-08-30T08:40:38.909Z,8.00
2018-08-30T08:42:14.626Z,7.00
2018-08-30T08:44:00.084Z,7.00
2018-08-30T08:45:36.252Z,4.50
2018-08-30T08:47:12.747Z,5.25
2018-08-30T08:48:48.348Z,6.50
2018-08-30T08:50:23.976Z,7.00
2018-08-30T08:52:07.071Z,6.75
2018-08-30T08:53:48.010Z,6.00
2018-08-30T08:55:30.098Z,7.00
2018-08-30T08:57:05.442Z,9.00
2018-08-30T08:58:40.686Z,5.00
2018-08-30T09:00:19.785Z,7.50
2018-08-30T09:01:55.355Z,6.50
2018-08-30T09:03:31.123Z,6.75
2018-08-30T09:05:07.145Z,6.25
2018-08-30T09:06:43.920Z,7.00
2018-08-30T09:08:20.978Z,6.50
2018-08-30T09:09:56.446Z,6.75
2018-08-30T09:11:32.047Z,7.50
2018-08-30T09:13:15.607Z,6.25
2018-08-30T09:14:53.295Z,5.75
2018-08-30T09:16:32.587Z,6.00
2018-08-30T09:18:10.616Z,6.75
2018-08-30T09:19:47.753Z,7.25
2018-08-30T09:21:25.157Z,6.00
2018-08-30T09:23:05.205Z,7.00
2018-08-30T09:24:41.445Z,5.00
2018-08-30T09:26:21.773Z,4.75
2018-08-30T09:27:59.748Z,4.75
2018-08-30T09:29:37.133Z,4.75
2018-08-30T09:31:17.392Z,3.75
2018-08-30T09:33:02.348Z,4.75
2018-08-30T09:34:49.254Z,3.50
2018-08-30T09:36:32.166Z,5.75
2018-08-30T09:38:08.700Z,4.50
2018-08-30T09:39:45.444Z,5.00
2018-08-30T09:41:23.245Z,5.50
2018-08-30T09:43:04.893Z,4.50
2018-08-30T09:44:53.765Z,4.25
2018-08-30T09:46:35.503Z,3.50
2018-08-30T09:48:16.894Z,6.00
2018-08-30T09:49:59.144Z,3.50
2018-08-30T09:51:44.184Z,4.25
2018-08-30T09:53:19.804Z,4.00
2018-08-30T09:54:55.934Z,3.50
2018-08-30T09:56:31.942Z,4.25
2018-08-30T09:58:09.185Z,3.50
2018-08-30T09:59:44.819Z,4.75
2018-08-30T10:01:30.711Z,5.00
2018-08-30T10:03:10.234Z,3.50
2018-08-30T10:06:18.282Z,4.00
2018-08-30T10:07:56.327Z,3.25
2018-08-30T10:09:32.953Z,4.25
2018-08-30T10:11:09.895Z,3.25
2018-08-30T10:12:50.234Z,4.75
2018-08-30T10:14:33.787Z,3.25
2018-08-30T10:16:10.389Z,3.25
2018-08-30T10:17:47.666Z,4.00
2018-08-30T10:19:30.247Z,3.00
2018-08-30T10:21:08.886Z,4.00
2018-08-30T10:22:52.133Z,2.25
2018-08-30T10:24:28.639Z,5.25
2018-08-30T10:26:07.924Z,3.50
2018-08-30T10:27:44.339Z,4.00
2018-08-30T10:29:20.630Z,3.25
2018-08-30T10:30:57.062Z,2.75
2018-08-30T10:32:32.864Z,3.25
2018-08-30T10:34:10.578Z,4.00
2018-08-30T10:35:45.351Z,3.50
2018-08-30T10:37:22.491Z,3.25
2018-08-30T10:38:59.358Z,2.75
2018-08-30T10:40:36.163Z,3.50
2018-08-30T10:42:17.452Z,3.50
2018-08-30T10:43:54.278Z,4.50
2018-08-30T10:45:44.217Z,2.75
2018-08-30T10:49:21.197Z,4.00
2018-08-30T10:50:58.982Z,2.00
2018-08-30T10:52:36.869Z,2.00
2018-08-30T10:54:14.467Z,2.25
2018-08-30T10:55:51.237Z,3.00
2018-08-30T10:57:26.656Z,2.25
2018-08-30T10:59:04.737Z,2.50
2018-08-30T11:00:40.898Z,3.00
2018-08-30T11:02:17.173Z,2.25
2018-08-30T11:04:00.302Z,2.00
2018-08-30T11:05:47.651Z,1.75
2018-08-30T11:07:28.683Z,1.00
2018-08-30T11:09:07.627Z,2.00
2018-08-30T11:10:43.961Z,3.00
2018-08-30T11:12:20.747Z,2.00
2018-08-30T11:13:55.988Z,2.00
2018-08-30T11:15:31.730Z,3.25
2018-08-30T11:17:11.287Z,2.00
2018-08-30T11:18:47.255Z,2.00
2018-08-30T11:20:23.942Z,2.00
2018-08-30T11:22:16.960Z,3.00
2018-08-30T11:23:58.364Z,2.00
2018-08-30T11:25:34.315Z,3.25
2018-08-30T11:27:10.683Z,1.75
2018-08-30T11:28:47.932Z,3.75
2018-08-30T11:30:23.383Z,0.75
2018-08-30T11:32:00.601Z,1.75
2018-08-30T11:33:43.021Z,2.25
2018-08-30T11:35:20.107Z,2.00
2018-08-30T11:36:59.916Z,1.25
2018-08-30T11:40:21.143Z,1.50
2018-08-30T11:41:58.193Z,2.00
2018-08-30T11:43:51.513Z,2.00
2018-08-30T11:45:39.707Z,1.75
2018-08-30T11:47:17.661Z,2.00
2018-08-30T11:48:55.887Z,1.50
2018-08-30T11:50:32.598Z,0.75
2018-08-30T11:52:11.583Z,1.25
2018-08-30T11:53:47.333Z,1.25
2018-08-30T11:55:24.646Z,2.00
2018-08-30T11:57:03.495Z,1.50
2018-08-30T11:58:44.883Z,1.25
2018-08-30T12:00:23.698Z,3.25
2018-08-30T12:01:59.767Z,2.75
2018-08-30T12:03:35.587Z,2.75
2018-08-30T12:05:12.667Z,3.00
2018-08-30T12:06:49.438Z,2.00
2018-08-30T12:08:24.755Z,2.50
2018-08-30T12:10:00.100Z,3.00
2018-08-30T12:11:38.786Z,1.75
2018-08-30T12:13:14.556Z,2.75
2018-08-30T12:14:51.798Z,2.50
2018-08-30T12:16:27.738Z,2.75
2018-08-30T12:18:04.531Z,2.75
2018-08-30T12:19:39.795Z,2.25
2018-08-30T12:21:15.987Z,4.00
2018-08-30T12:22:51.261Z,2.00
2018-08-30T12:24:30.180Z,3.75
2018-08-30T12:26:05.556Z,2.75
2018-08-30T12:27:47.724Z,3.25
2018-08-30T12:29:28.598Z,3.00
2018-08-30T12:31:05.266Z,2.75
2018-08-30T12:32:40.606Z,2.75
2018-08-30T12:34:17.844Z,2.50
2018-08-30T12:35:55.866Z,1.75
2018-08-30T12:37:32.433Z,1.25
2018-08-30T12:39:12.141Z,2.75
2018-08-30T12:40:50.037Z,2.00
2018-08-30T12:42:25.734Z,0.75
2018-08-30T12:44:02.747Z,1.25
2018-08-30T12:45:39.222Z,1.25
2018-08-30T12:47:17.337Z,2.50
2018-08-30T12:48:54.918Z,1.25
2018-08-30T12:50:31.577Z,1.75
2018-08-30T12:52:08.304Z,2.75
2018-08-30T12:53:45.758Z,4.25
2018-08-30T12:55:25.237Z,3.00
2018-08-30T12:57:03.180Z,1.75
2018-08-30T12:58:38.589Z,1.75
2018-08-30T13:00:16.717Z,1.75
2018-08-30T13:01:52.170Z,2.75
2018-08-30T13:03:27.972Z,3.50
2018-08-30T13:05:04.645Z,1.75
2018-08-30T13:06:45.812Z,1.75
2018-08-30T13:08:21.003Z,2.75
2018-08-30T13:09:56.776Z,1.75
2018-08-30T13:11:33.578Z,1.75
2018-08-30T13:13:09.574Z,4.00
2018-08-30T13:14:47.542Z,1.75
2018-08-30T13:16:23.096Z,2.75
2018-08-30T13:17:58.413Z,2.25
2018-08-30T13:19:35.730Z,2.75
2018-08-30T13:21:16.766Z,1.25
2018-08-30T13:22:57.440Z,2.50
2018-08-30T13:24:33.093Z,1.75
2018-08-30T13:26:10.281Z,1.25
2018-08-30T13:27:45.670Z,1.25
2018-08-30T13:29:32.040Z,1.25
2018-08-30T13:31:08.410Z,2.00
2018-08-30T13:32:50.798Z,2.00
2018-08-30T13:34:40.466Z,1.75
2018-08-30T13:36:23.621Z,1.50
2018-08-30T13:38:06.472Z,0.25
2018-08-30T13:39:48.188Z,1.75
2018-08-30T13:43:47.266Z,2.75
2018-08-30T13:45:42.008Z,1.75
2018-08-30T13:47:21.015Z,2.25
2018-08-30T13:49:04.258Z,1.25
2018-08-30T13:50:43.507Z,1.25
2018-08-30T13:52:26.611Z,2.25
2018-08-30T13:54:17.287Z,2.00
2018-08-30T13:56:02.815Z,3.00
2018-08-30T13:57:49.703Z,3.00
2018-08-30T13:59:38.173Z,3.00
2018-08-30T14:01:20.185Z,2.25
2018-08-30T14:03:01.813Z,3.75
2018-08-30T14:04:38.351Z,3.25
2018-08-30T14:06:19.987Z,1.75
2018-08-30T14:07:56.281Z,2.75
2018-08-30T14:09:33.217Z,2.00
2018-08-30T14:11:10.900Z,1.75
2018-08-30T14:12:50.796Z,2.00
2018-08-30T14:14:27.640Z,2.00
2018-08-30T14:16:04.997Z,2.25
2018-08-30T14:17:40.989Z,2.25
2018-08-30T14:19:18.061Z,2.75
2018-08-30T14:20:54.435Z,2.50
2018-08-30T14:22:30.811Z,3.00
2018-08-30T14:24:08.540Z,2.25
2018-08-30T14:25:49.342Z,3.00
2018-08-30T14:27:28.281Z,1.75
2018-08-30T14:29:06.229Z,2.00
2018-08-30T14:30:42.101Z,2.00
2018-08-30T14:32:20.432Z,2.75
2018-08-30T14:33:58.686Z,2.25
2018-08-30T14:35:35.575Z,2.75
2018-08-30T14:37:12.620Z,2.00
2018-08-30T14:38:48.005Z,2.75
2018-08-30T14:40:23.788Z,1.25
2018-08-30T14:42:14.751Z,2.00
2018-08-30T14:44:06.294Z,2.75
2018-08-30T14:45:50.270Z,3.00
2018-08-30T14:47:29.891Z,2.50
2018-08-30T14:49:10.749Z,2.50
2018-08-30T14:52:23.820Z,2.00
2018-08-30T14:54:00.904Z,2.75
2018-08-30T14:55:37.353Z,3.50
2018-08-30T14:57:14.875Z,2.75
2018-08-30T14:58:50.814Z,2.50
2018-08-30T15:00:32.720Z,2.75
2018-08-30T15:02:08.927Z,2.75
2018-08-30T15:03:45.860Z,1.25
2018-08-30T15:05:22.564Z,1.75
2018-08-30T15:07:01.604Z,1.50
2018-08-30T15:08:38.504Z,2.25
2018-08-30T15:10:17.887Z,1.50
2018-08-30T15:11:55.868Z,1.75
2018-08-30T15:13:33.251Z,2.00
2018-08-30T15:15:09.573Z,1.75
2018-08-30T15:16:47.992Z,2.00
2018-08-30T15:18:24.085Z,1.50
2018-08-30T15:20:02.757Z,2.00
2018-08-30T15:21:38.746Z,3.25
2018-08-30T15:23:14.822Z,1.75
2018-08-30T15:24:55.448Z,2.75
2018-08-30T15:26:33.718Z,2.00
2018-08-30T15:28:08.935Z,3.50
2018-08-30T15:29:45.556Z,1.75
2018-08-30T15:31:20.798Z,1.50
2018-08-30T15:32:56.757Z,1.75
2018-08-30T15:34:38.921Z,1.75
2018-08-30T15:36:16.890Z,3.75
2018-08-30T15:37:53.846Z,2.00
2018-08-30T15:39:30.654Z,1.00
2018-08-30T15:41:06.902Z,1.50
2018-08-30T15:42:43.895Z,1.00
2018-08-30T15:44:19.132Z,0.75
2018-08-30T15:45:55.623Z,1.75
2018-08-30T15:47:31.213Z,1.75
2018-08-30T15:49:07.462Z,2.75
2018-08-30T15:50:43.261Z,0.75
2018-08-30T15:52:20.274Z,2.50
2018-08-30T15:53:55.396Z,1.75
2018-08-30T15:55:32.022Z,0.75
2018-08-30T15:57:08.753Z,1.50
2018-08-30T15:58:47.855Z,2.50
2018-08-30T16:00:25.706Z,2.50
2018-08-30T16:02:00.912Z,2.75
2018-08-30T16:03:37.176Z,1.75
2018-08-30T16:05:14.724Z,3.00
2018-08-30T16:06:50.693Z,2.75
2018-08-30T16:08:31.659Z,2.75
2018-08-30T16:10:08.230Z,2.75
2018-08-30T16:11:46.585Z,2.75
2018-08-30T16:13:22.807Z,2.75
2018-08-30T16:14:59.806Z,2.25
2018-08-30T16:16:36.043Z,4.75
2018-08-30T16:18:12.767Z,2.00
2018-08-30T16:19:50.496Z,2.25
2018-08-30T16:23:37.587Z,2.00
2018-08-30T16:25:12.773Z,1.00
2018-08-30T16:26:50.383Z,2.75
2018-08-30T16:28:28.073Z,2.75
2018-08-30T16:30:05.776Z,3.00
2018-08-30T16:31:47.356Z,2.50
2018-08-30T16:33:23.887Z,2.25
2018-08-30T16:34:59.319Z,3.75
2018-08-30T16:36:34.959Z,1.75
2018-08-30T16:38:10.316Z,2.75
2018-08-30T16:39:45.705Z,3.25
2018-08-30T16:41:21.707Z,2.00
2018-08-30T16:42:59.124Z,2.75
2018-08-30T16:44:35.821Z,3.75
2018-08-30T16:46:18.334Z,2.50
2018-08-30T16:48:06.741Z,3.75
2018-08-30T16:49:55.225Z,2.75
2018-08-30T16:51:31.752Z,2.75
2018-08-30T16:53:08.230Z,2.00
2018-08-30T16:54:45.061Z,2.25
2018-08-30T16:56:22.602Z,2.75
2018-08-30T16:57:59.723Z,2.75
2018-08-30T16:59:39.639Z,2.75
2018-08-30T17:01:17.268Z,2.75
2018-08-30T17:02:54.568Z,2.00
2018-08-30T17:04:33.908Z,4.75
2018-08-30T17:06:13.488Z,3.25
2018-08-30T17:07:49.716Z,3.00
2018-08-30T17:09:26.440Z,3.50
2018-08-30T17:11:03.985Z,2.00
2018-08-30T17:12:42.624Z,2.75
2018-08-30T17:14:18.437Z,4.75
2018-08-30T17:15:55.509Z,3.75
2018-08-30T17:17:36.011Z,1.75
2018-08-30T17:19:23.505Z,3.00
2018-08-30T17:21:02.623Z,1.75
2018-08-30T17:22:40.297Z,13.50
2018-08-30T17:24:18.876Z,12.50
2018-08-30T17:25:59.610Z,2.75
2018-08-30T17:27:35.587Z,5.25
2018-08-30T17:29:12.514Z,3.25
2018-08-30T17:30:53.699Z,2.75
2018-08-30T17:32:30.932Z,2.75
2018-08-30T17:34:08.467Z,2.50
2018-08-30T17:35:48.608Z,3.75
2018-08-30T17:37:31.718Z,3.75
2018-08-30T17:39:13.629Z,1.75
2018-08-30T17:40:51.067Z,2.00
2018-08-30T17:42:36.561Z,3.00
2018-08-30T17:44:19.530Z,3.00
2018-08-30T17:45:57.828Z,4.00
2018-08-30T17:47:33.028Z,2.75
2018-08-30T17:49:09.129Z,4.00
2018-08-30T17:50:49.321Z,2.75
2018-08-30T17:52:24.682Z,4.00
2018-08-30T17:54:03.332Z,4.75
2018-08-30T17:55:41.329Z,4.50
2018-08-30T17:57:25.928Z,4.50
2018-08-30T17:59:05.061Z,18.75
2018-08-30T18:00:47.423Z,17.50
2018-08-30T18:02:25.640Z,6.00
2018-08-30T18:04:07.348Z,3.75
2018-08-30T18:05:47.646Z,5.00
2018-08-30T18:07:32.369Z,5.00
2018-08-30T18:09:14.920Z,6.00
2018-08-30T18:10:51.577Z,3.50
2018-08-30T18:12:29.802Z,4.75
2018-08-30T18:14:05.589Z,4.00
2018-08-30T18:15:41.137Z,2.25
2018-08-30T18:17:18.558Z,1.75
2018-08-30T18:18:54.544Z,1.50
2018-08-30T18:20:30.674Z,2.00
2018-08-30T18:22:09.712Z,1.25
2018-08-30T18:23:45.461Z,3.25
2018-08-30T18:25:24.245Z,1.50
2018-08-30T18:26:59.802Z,2.25
2018-08-30T18:28:36.330Z,2.00
2018-08-30T18:30:16.261Z,2.25
2018-08-30T18:31:54.746Z,2.00
2018-08-30T18:33:33.056Z,4.25
2018-08-30T18:35:11.301Z,5.50
2018-08-30T18:36:49.772Z,27.50
2018-08-30T18:38:30.592Z,5.25
2018-08-30T18:40:08.740Z,2.25
2018-08-30T18:41:45.256Z,3.25
2018-08-30T18:43:22.439Z,2.00
2018-08-30T18:45:06.076Z,4.00
2018-08-30T18:47:03.345Z,2.75
2018-08-30T18:49:04.407Z,4.75
2018-08-30T18:50:50.429Z,2.75
2018-08-30T18:52:27.680Z,2.50
2018-08-30T18:54:03.291Z,2.75
2018-08-30T18:55:38.689Z,1.75
2018-08-30T18:57:15.552Z,2.75
2018-08-30T18:58:52.379Z,2.75
2018-08-30T19:00:29.281Z,3.75
2018-08-30T19:02:08.615Z,2.50
2018-08-30T19:03:48.107Z,3.25
2018-08-30T19:05:25.585Z,1.75
2018-08-30T19:07:03.860Z,2.25
2018-08-30T19:08:39.076Z,2.75
2018-08-30T19:10:14.455Z,1.75
2018-08-30T19:11:49.769Z,2.00
2018-08-30T19:13:25.928Z,2.00
2018-08-30T19:15:07.228Z,2.75
2018-08-30T19:17:48.577Z,0.75
2018-08-30T19:19:29.311Z,2.25
2018-08-30T19:21:08.416Z,3.75
2018-08-30T19:22:44.336Z,2.00
2018-08-30T19:24:24.805Z,2.75
2018-08-30T19:26:04.391Z,2.00
2018-08-30T19:27:41.790Z,2.00
2018-08-30T19:29:17.930Z,2.00
2018-08-30T19:30:54.464Z,3.00
2018-08-30T19:32:35.457Z,1.75
2018-08-30T19:34:12.849Z,3.00
2018-08-30T19:35:54.582Z,6.00
2018-08-30T19:37:34.878Z,3.00
2018-08-30T19:39:14.096Z,2.50
2018-08-30T19:40:55.159Z,3.75
2018-08-30T19:42:33.867Z,22.75
2018-08-30T19:44:13.596Z,2.75
2018-08-30T19:45:53.449Z,1.75
2018-08-30T19:47:31.231Z,2.75
2018-08-30T19:49:10.304Z,1.75
2018-08-30T19:50:45.716Z,3.00
2018-08-30T19:52:23.724Z,6.00
2018-08-30T19:54:02.314Z,2.25
2018-08-30T19:55:37.516Z,1.75
2018-08-30T19:57:16.790Z,2.50
2018-08-30T19:58:53.505Z,3.50
2018-08-30T20:00:33.818Z,3.00
2018-08-30T20:02:11.364Z,10.00
2018-08-30T20:03:47.940Z,12.00
2018-08-30T20:05:24.496Z,3.50
2018-08-30T20:07:04.601Z,3.00
2018-08-30T20:08:41.583Z,3.00
2018-08-30T20:10:20.830Z,3.50
2018-08-30T20:11:58.915Z,3.00
2018-08-30T20:13:35.398Z,2.00
2018-08-30T20:15:15.578Z,3.00
2018-08-30T20:16:52.569Z,3.00
2018-08-30T20:18:33.721Z,2.50
2018-08-30T20:20:12.200Z,3.00
2018-08-30T20:21:52.169Z,9.25
2018-08-30T20:23:28.513Z,2.75
2018-08-30T20:25:03.936Z,2.00
2018-08-30T20:26:40.221Z,2.25
2018-08-30T20:28:15.640Z,3.00
2018-08-30T20:29:51.563Z,3.00
2018-08-30T20:31:32.332Z,3.00
2018-08-30T20:33:09.589Z,3.00
2018-08-30T20:34:44.945Z,2.25
2018-08-30T20:36:20.821Z,2.50
2018-08-30T20:37:56.410Z,2.00
2018-08-30T20:39:31.730Z,2.00
2018-08-30T20:41:09.693Z,2.00
2018-08-30T20:42:46.230Z,2.00
2018-08-30T20:44:22.653Z,3.00
2018-08-30T20:45:59.437Z,3.75
2018-08-30T20:47:35.780Z,2.50
2018-08-30T20:49:11.973Z,3.00
2018-08-30T20:50:47.499Z,2.00
2018-08-30T20:52:24.016Z,2.25
2018-08-30T20:54:02.613Z,2.00
2018-08-30T20:55:38.526Z,3.00
2018-08-30T20:57:14.970Z,3.00
2018-08-30T20:58:50.315Z,3.00
2018-08-30T21:00:27.458Z,14.75
2018-08-30T21:02:05.266Z,2.00
2018-08-30T21:03:42.805Z,3.00
2018-08-30T21:05:19.630Z,3.00
2018-08-30T21:06:55.184Z,3.00
2018-08-30T21:08:45.291Z,4.00
2018-08-30T21:10:30.404Z,3.00
2018-08-30T21:12:17.097Z,5.75
2018-08-30T21:13:55.307Z,3.00
2018-08-30T21:15:32.034Z,3.00
2018-08-30T21:17:10.482Z,3.00
2018-08-30T21:18:45.811Z,3.50
2018-08-30T21:20:21.567Z,2.50
2018-08-30T21:21:58.521Z,2.75
2018-08-30T21:23:38.517Z,1.75
2018-08-30T21:25:16.273Z,2.75
2018-08-30T21:26:54.415Z,2.75
2018-08-30T21:28:34.405Z,4.00
2018-08-30T21:30:11.830Z,5.75
2018-08-30T21:31:53.547Z,2.75
2018-08-30T21:33:38.921Z,2.75
2018-08-30T21:35:14.931Z,2.50
2018-08-30T21:36:51.857Z,2.75
2018-08-30T21:38:27.224Z,2.25
2018-08-30T21:40:04.807Z,2.75
2018-08-30T21:41:41.328Z,2.00
2018-08-30T21:43:17.163Z,3.00
2018-08-30T21:44:55.909Z,2.25